Time;durP1;ratioP1;P1;durP2;ratioP2;P2;SDS_P1;SDS_P2;PMS_P1;PMS_P2;Temp;Humidity;BMP_temperature;BMP_pressure;BME280_temperature;BME280_humidity;BME280_pressure;Samples;Min_cycle;Max_cycle;Signal;HPM_P1;HPM_P2
2023/06/26 00:01:39;;;;;;;20.48;1.90;;;;;;;;;;5027670;28;20549;-58
2023/06/26 00:04:06;;;;;;;13.45;2.38;;;;;;;;;;5029213;28;20037;-53
2023/06/26 00:06:33;;;;;;;14.18;2.05;;;;;;;;;;5030411;28;20037;-58
2023/06/26 00:09:02;;;;;;;14.82;2.10;;;;;;;;;;5030588;28;20022;-50
2023/06/26 00:11:33;;;;;;;14.35;2.03;;;;;;;;;;5028602;28;20394;-55
2023/06/26 00:14:00;;;;;;;10.57;1.77;;;;;;;;;;5022582;28;20038;-51
2023/06/26 00:16:28;;;;;;;17.95;2.17;;;;;;;;;;5028480;28;20029;-57
2023/06/26 00:18:55;;;;;;;21.35;2.42;;;;;;;;;;5021511;28;20419;-51
2023/06/26 00:21:22;;;;;;;15.80;1.83;;;;;;;;;;5030360;28;20045;-47
2023/06/26 00:23:49;;;;;;;17.10;2.03;;;;;;;;;;5027051;28;20463;-53
2023/06/26 00:26:16;;;;;;;14.93;1.50;;;;;;;;;;5034709;28;20029;-50
2023/06/26 00:28:43;;;;;;;16.38;2.05;;;;;;;;;;5027521;28;20124;-49
2023/06/26 00:31:10;;;;;;;17.05;2.03;;;;;;;;;;5034525;28;20025;-48
2023/06/26 00:33:37;;;;;;;18.13;2.53;;;;;;;;;;5029635;28;20025;-47
2023/06/26 00:36:04;;;;;;;15.75;2.28;;;;;;;;;;5034645;28;20033;-47
2023/06/26 00:38:31;;;;;;;12.75;1.60;;;;;;;;;;5031157;28;20057;-46
2023/06/26 00:40:58;;;;;;;15.60;1.75;;;;;;;;;;5034387;28;20124;-46
2023/06/26 00:43:25;;;;;;;13.48;1.60;;;;;;;;;;5033045;28;20048;-46
2023/06/26 00:45:52;;;;;;;14.40;1.98;;;;;;;;;;5018290;28;20050;-47
2023/06/26 00:48:20;;;;;;;13.45;1.75;;;;;;;;;;5021281;28;20052;-47
2023/06/26 00:50:47;;;;;;;14.48;2.00;;;;;;;;;;5033803;28;20076;-47
2023/06/26 00:53:14;;;;;;;10.32;1.63;;;;;;;;;;5030555;28;20052;-47
2023/06/26 00:55:41;;;;;;;15.90;2.13;;;;;;;;;;5032706;28;20121;-47
2023/06/26 00:58:08;;;;;;;17.25;1.83;;;;;;;;;;5024900;28;20034;-49
2023/06/26 01:00:35;;;;;;;14.00;2.08;;;;;;;;;;5016048;28;20068;-48
2023/06/26 01:03:02;;;;;;;14.90;3.00;;;;;;;;;;5033861;28;20033;-53
2023/06/26 01:05:30;;;;;;;13.45;3.17;;;;;;;;;;5033828;28;20427;-52
2023/06/26 01:07:58;;;;;;;20.02;4.63;;;;;;;;;;5022164;28;20443;-59
2023/06/26 01:10:27;;;;;;;33.92;8.10;;;;;;;;;;5032216;28;20108;-58
2023/06/26 01:12:54;;;;;;;33.80;8.45;;;;;;;;;;5022944;28;20084;-58
2023/06/26 01:15:21;;;;;;;37.40;8.90;;;;;;;;;;5031877;28;20056;-51
2023/06/26 01:17:50;;;;;;;44.05;11.57;;;;;;;;;;5033829;28;20092;-52
2023/06/26 01:20:18;;;;;;;48.40;10.85;;;;;;;;;;5033485;28;20070;-56
2023/06/26 01:22:51;;;;;;;42.42;12.63;;;;;;;;;;5032733;28;20450;-51
2023/06/26 01:25:21;;;;;;;42.00;13.25;;;;;;;;;;5019523;28;20484;-50
2023/06/26 01:27:50;;;;;;;54.30;16.02;;;;;;;;;;5013951;28;20022;-49
2023/06/26 01:30:17;;;;;;;54.72;16.95;;;;;;;;;;5013840;28;20029;-49
2023/06/26 01:32:44;;;;;;;59.38;16.55;;;;;;;;;;5013486;28;20109;-51
2023/06/26 01:35:12;;;;;;;48.85;17.67;;;;;;;;;;5012930;28;20033;-49
2023/06/26 01:37:39;;;;;;;50.05;17.50;;;;;;;;;;5013468;28;20091;-49
2023/06/26 01:40:07;;;;;;;56.72;18.30;;;;;;;;;;5013638;28;20030;-50
2023/06/26 01:42:34;;;;;;;63.78;17.98;;;;;;;;;;5015812;28;20077;-50
2023/06/26 01:45:21;;;;;;;57.05;17.48;;;;;;;;;;5032575;28;20025;-49
2023/06/26 01:47:51;;;;;;;56.78;16.13;;;;;;;;;;5023983;28;20403;-48
2023/06/26 01:50:22;;;;;;;62.78;16.27;;;;;;;;;;5024891;28;20492;-48
2023/06/26 01:52:55;;;;;;;47.80;16.27;;;;;;;;;;5014615;28;20026;-51
2023/06/26 01:55:35;;;;;;;50.78;15.90;;;;;;;;;;5013643;28;20125;-49
2023/06/26 01:58:03;;;;;;;47.63;15.48;;;;;;;;;;5018621;28;20060;-50
2023/06/26 02:00:30;;;;;;;44.28;14.05;;;;;;;;;;5032275;28;20037;-49
2023/06/26 02:02:59;;;;;;;43.60;14.85;;;;;;;;;;5031907;28;20049;-50
2023/06/26 02:05:27;;;;;;;39.33;14.18;;;;;;;;;;5023798;28;20105;-49
2023/06/26 02:07:54;;;;;;;39.75;14.27;;;;;;;;;;5025159;28;20025;-49
2023/06/26 02:10:21;;;;;;;44.53;13.35;;;;;;;;;;5024231;28;20052;-49
2023/06/26 02:12:48;;;;;;;42.22;13.93;;;;;;;;;;5023583;28;20044;-49
2023/06/26 02:15:15;;;;;;;40.67;14.13;;;;;;;;;;5011238;28;20039;-51
2023/06/26 02:17:42;;;;;;;37.10;13.40;;;;;;;;;;5012317;28;20036;-47
2023/06/26 02:20:10;;;;;;;43.65;12.98;;;;;;;;;;5012197;28;20110;-49
2023/06/26 02:22:37;;;;;;;38.88;12.00;;;;;;;;;;5012193;28;20141;-47
2023/06/26 02:25:04;;;;;;;37.45;11.13;;;;;;;;;;5019526;28;20072;-45
2023/06/26 02:27:32;;;;;;;34.42;10.27;;;;;;;;;;5031333;28;20480;-53
2023/06/26 02:29:59;;;;;;;35.08;10.30;;;;;;;;;;5030423;28;20507;-58
2023/06/26 02:32:26;;;;;;;36.22;11.00;;;;;;;;;;5032101;28;20033;-57
2023/06/26 02:34:53;;;;;;;30.10;10.00;;;;;;;;;;5032347;28;20083;-52
2023/06/26 02:37:20;;;;;;;33.67;10.02;;;;;;;;;;5032481;28;20060;-49
2023/06/26 02:39:47;;;;;;;32.13;9.40;;;;;;;;;;5030031;28;20095;-49
2023/06/26 02:42:14;;;;;;;29.30;9.50;;;;;;;;;;5031806;28;20073;-48
2023/06/26 02:44:42;;;;;;;34.40;10.05;;;;;;;;;;5014361;28;20048;-49
2023/06/26 02:47:09;;;;;;;25.15;9.93;;;;;;;;;;5031048;28;20160;-46
2023/06/26 02:49:36;;;;;;;32.60;9.50;;;;;;;;;;5031429;28;20029;-48
2023/06/26 02:52:03;;;;;;;28.67;10.07;;;;;;;;;;5031520;28;20033;-46
2023/06/26 02:54:30;;;;;;;26.15;9.27;;;;;;;;;;5031618;28;20033;-46
2023/06/26 02:56:57;;;;;;;29.92;9.48;;;;;;;;;;5029364;28;20430;-46
2023/06/26 02:59:24;;;;;;;23.83;8.98;;;;;;;;;;5031800;28;20037;-46
2023/06/26 03:01:51;;;;;;;26.42;8.90;;;;;;;;;;5031725;28;20041;-46
2023/06/26 03:04:21;;;;;;;25.02;9.30;;;;;;;;;;5031546;28;20379;-46
2023/06/26 03:06:48;;;;;;;26.52;9.73;;;;;;;;;;5031523;28;20069;-46
2023/06/26 03:09:16;;;;;;;20.85;8.95;;;;;;;;;;5028918;28;20108;-45
2023/06/26 03:11:43;;;;;;;25.15;8.10;;;;;;;;;;5031489;28;20029;-46
2023/06/26 03:14:10;;;;;;;25.08;8.63;;;;;;;;;;5031317;28;20040;-46
2023/06/26 03:16:37;;;;;;;21.13;8.25;;;;;;;;;;5031496;28;20139;-46
2023/06/26 03:19:05;;;;;;;24.35;8.95;;;;;;;;;;5031508;28;20407;-46
2023/06/26 03:21:32;;;;;;;24.20;8.68;;;;;;;;;;5031288;28;20103;-47
2023/06/26 03:23:59;;;;;;;22.75;7.90;;;;;;;;;;5013382;28;20029;-46
2023/06/26 03:26:27;;;;;;;20.85;7.93;;;;;;;;;;5029999;28;20052;-46
2023/06/26 03:28:54;;;;;;;21.40;8.23;;;;;;;;;;5030837;28;20036;-46
2023/06/26 03:31:21;;;;;;;20.48;7.82;;;;;;;;;;5031502;28;20122;-49
2023/06/26 03:33:48;;;;;;;19.42;7.82;;;;;;;;;;5028901;28;20048;-46
2023/06/26 03:36:15;;;;;;;20.85;7.97;;;;;;;;;;5031076;28;20430;-47
2023/06/26 03:38:43;;;;;;;19.67;7.68;;;;;;;;;;5031103;28;20029;-45
2023/06/26 03:41:10;;;;;;;21.48;7.50;;;;;;;;;;5031069;28;20037;-46
2023/06/26 03:43:37;;;;;;;18.17;7.55;;;;;;;;;;5028434;28;20061;-46
2023/06/26 03:46:04;;;;;;;18.08;7.30;;;;;;;;;;5030891;28;20053;-47
2023/06/26 03:48:31;;;;;;;15.13;6.95;;;;;;;;;;5031031;28;20720;-45
2023/06/26 03:50:59;;;;;;;17.73;7.22;;;;;;;;;;5028931;28;20040;-46
2023/06/26 03:53:25;;;;;;;15.60;6.40;;;;;;;;;;5031560;28;20026;-46
2023/06/26 03:55:53;;;;;;;19.45;6.90;;;;;;;;;;5031501;28;20057;-46
2023/06/26 03:58:20;;;;;;;18.70;7.10;;;;;;;;;;5031126;28;20051;-47
2023/06/26 04:00:47;;;;;;;20.23;6.63;;;;;;;;;;5031486;28;20041;-46
2023/06/26 04:03:14;;;;;;;14.98;6.20;;;;;;;;;;5031349;28;20426;-46
2023/06/26 04:05:41;;;;;;;16.55;6.88;;;;;;;;;;5031480;28;20111;-46
2023/06/26 04:08:08;;;;;;;16.40;6.90;;;;;;;;;;5031456;28;20037;-46
2023/06/26 04:10:36;;;;;;;16.70;6.68;;;;;;;;;;5031459;28;20483;-46
2023/06/26 04:13:03;;;;;;;15.27;6.07;;;;;;;;;;5031252;28;20048;-46
2023/06/26 04:15:30;;;;;;;14.93;5.90;;;;;;;;;;5031380;28;20030;-46
2023/06/26 04:17:57;;;;;;;16.90;6.53;;;;;;;;;;5013517;28;20120;-48
2023/06/26 04:20:24;;;;;;;15.60;5.82;;;;;;;;;;5031425;28;20492;-46
2023/06/26 04:22:51;;;;;;;13.60;5.78;;;;;;;;;;5031146;28;20044;-45
2023/06/26 04:25:18;;;;;;;14.45;6.10;;;;;;;;;;5031139;28;20037;-46
2023/06/26 04:27:45;;;;;;;14.68;5.75;;;;;;;;;;5031276;28;20026;-45
2023/06/26 04:30:12;;;;;;;13.82;5.53;;;;;;;;;;5031225;28;20087;-46
2023/06/26 04:32:39;;;;;;;12.75;5.72;;;;;;;;;;5031142;28;20562;-46
2023/06/26 04:35:06;;;;;;;15.02;5.45;;;;;;;;;;5031254;28;20029;-46
2023/06/26 04:37:33;;;;;;;14.45;5.65;;;;;;;;;;5031113;28;20395;-46
2023/06/26 04:40:00;;;;;;;15.13;5.57;;;;;;;;;;5031216;28;20026;-46
2023/06/26 04:42:27;;;;;;;13.15;5.55;;;;;;;;;;5030991;28;20087;-46
2023/06/26 04:44:54;;;;;;;12.43;5.00;;;;;;;;;;5030907;28;20048;-46
2023/06/26 04:47:21;;;;;;;11.40;5.18;;;;;;;;;;5030911;28;20094;-47
2023/06/26 04:49:48;;;;;;;12.95;5.40;;;;;;;;;;5031107;28;20040;-46
2023/06/26 04:52:15;;;;;;;12.85;5.45;;;;;;;;;;5030908;28;20116;-46
2023/06/26 04:54:42;;;;;;;10.10;5.20;;;;;;;;;;5031033;28;20108;-46
2023/06/26 04:57:11;;;;;;;11.35;5.05;;;;;;;;;;5030982;28;20025;-46
2023/06/26 04:59:38;;;;;;;11.70;5.00;;;;;;;;;;5030857;28;20506;-46
2023/06/26 05:02:05;;;;;;;11.77;4.78;;;;;;;;;;5030866;28;20042;-45
2023/06/26 05:04:32;;;;;;;11.13;4.80;;;;;;;;;;5030960;28;20041;-46
2023/06/26 05:06:59;;;;;;;13.07;4.88;;;;;;;;;;5030842;28;20164;-48
2023/06/26 05:09:26;;;;;;;10.57;4.72;;;;;;;;;;5032443;28;20022;-46
2023/06/26 05:11:53;;;;;;;9.07;4.65;;;;;;;;;;5034405;28;20030;-45
2023/06/26 05:14:20;;;;;;;10.65;4.75;;;;;;;;;;5034373;28;20033;-46
2023/06/26 05:16:48;;;;;;;16.33;4.68;;;;;;;;;;5034369;28;20496;-46
2023/06/26 05:19:15;;;;;;;9.52;4.47;;;;;;;;;;5034305;28;20152;-47
2023/06/26 05:21:42;;;;;;;9.90;4.65;;;;;;;;;;5034088;28;20037;-45
2023/06/26 05:24:10;;;;;;;10.50;4.63;;;;;;;;;;5034192;28;20112;-46
2023/06/26 05:26:37;;;;;;;10.13;4.40;;;;;;;;;;5034250;28;20095;-47
2023/06/26 05:29:04;;;;;;;11.35;4.68;;;;;;;;;;5034153;28;20025;-46
2023/06/26 05:31:35;;;;;;;9.70;4.47;;;;;;;;;;5034055;28;20558;-46
2023/06/26 05:34:03;;;;;;;7.80;4.10;;;;;;;;;;5033723;28;20553;-46
2023/06/26 05:36:32;;;;;;;8.02;4.05;;;;;;;;;;5034011;28;20044;-46
2023/06/26 05:39:00;;;;;;;10.73;4.13;;;;;;;;;;5033785;28;20117;-46
2023/06/26 05:41:27;;;;;;;7.53;3.42;;;;;;;;;;5033812;28;20029;-46
2023/06/26 05:43:54;;;;;;;10.20;3.92;;;;;;;;;;5016272;28;20064;-45
2023/06/26 05:46:21;;;;;;;10.13;4.15;;;;;;;;;;5033364;28;20072;-46
2023/06/26 05:48:48;;;;;;;8.48;4.00;;;;;;;;;;5033780;28;20116;-46
2023/06/26 05:51:15;;;;;;;11.40;4.22;;;;;;;;;;5033727;28;20025;-47
2023/06/26 05:53:42;;;;;;;8.50;3.92;;;;;;;;;;5033623;28;20022;-47
2023/06/26 05:56:10;;;;;;;7.78;3.97;;;;;;;;;;5033642;28;20037;-46
2023/06/26 05:58:37;;;;;;;7.60;3.47;;;;;;;;;;5033427;28;20388;-45
2023/06/26 06:01:04;;;;;;;6.72;3.50;;;;;;;;;;5032102;28;20037;-46
2023/06/26 06:03:31;;;;;;;7.45;3.47;;;;;;;;;;5033327;28;20033;-46
2023/06/26 06:05:58;;;;;;;8.07;3.80;;;;;;;;;;5033473;28;20033;-46
2023/06/26 06:08:25;;;;;;;6.65;3.47;;;;;;;;;;5033392;28;20105;-46
2023/06/26 06:10:52;;;;;;;8.52;3.65;;;;;;;;;;5033360;28;20033;-46
2023/06/26 06:13:19;;;;;;;7.88;3.60;;;;;;;;;;5033165;28;20368;-46
2023/06/26 06:15:46;;;;;;;6.97;3.38;;;;;;;;;;5033279;28;20040;-46
2023/06/26 06:18:13;;;;;;;9.35;3.85;;;;;;;;;;5033335;28;20056;-46
2023/06/26 06:20:40;;;;;;;7.03;3.33;;;;;;;;;;5032755;28;20125;-46
2023/06/26 06:23:07;;;;;;;5.93;3.13;;;;;;;;;;5032966;28;20087;-48
2023/06/26 06:25:34;;;;;;;6.40;3.30;;;;;;;;;;5033043;28;20072;-45
2023/06/26 06:28:01;;;;;;;8.27;3.58;;;;;;;;;;5015246;28;20025;-46
2023/06/26 06:30:28;;;;;;;7.43;3.45;;;;;;;;;;5032996;28;20069;-46
2023/06/26 06:32:55;;;;;;;5.65;2.97;;;;;;;;;;5032877;28;20034;-48
2023/06/26 06:35:22;;;;;;;12.05;2.95;;;;;;;;;;5032956;28;20437;-46
2023/06/26 06:37:49;;;;;;;5.45;2.90;;;;;;;;;;5032792;28;20118;-46
2023/06/26 06:40:16;;;;;;;6.80;3.13;;;;;;;;;;5015084;28;20476;-46
2023/06/26 06:42:43;;;;;;;5.47;2.95;;;;;;;;;;5032706;28;20052;-46
2023/06/26 06:45:10;;;;;;;5.43;2.60;;;;;;;;;;5032343;28;20416;-46
2023/06/26 06:47:37;;;;;;;7.15;3.20;;;;;;;;;;5032611;28;20036;-46
2023/06/26 06:50:10;;;;;;;5.40;3.05;;;;;;;;;;5032614;28;20113;-47
2023/06/26 06:52:39;;;;;;;5.32;2.83;;;;;;;;;;5032472;28;20048;-46
2023/06/26 06:55:08;;;;;;;4.68;2.80;;;;;;;;;;5032467;28;20164;-46
2023/06/26 06:57:39;;;;;;;5.80;2.75;;;;;;;;;;5015013;28;20036;-46
2023/06/26 07:00:08;;;;;;;5.95;2.78;;;;;;;;;;5032299;28;20033;-46
2023/06/26 07:02:36;;;;;;;6.57;2.60;;;;;;;;;;5032218;28;20029;-46
2023/06/26 07:05:04;;;;;;;5.82;2.72;;;;;;;;;;5032416;28;20116;-46
2023/06/26 07:07:32;;;;;;;6.80;2.75;;;;;;;;;;5030929;28;20427;-46
2023/06/26 07:10:00;;;;;;;4.78;2.40;;;;;;;;;;5032257;28;20032;-46
2023/06/26 07:12:27;;;;;;;5.30;2.17;;;;;;;;;;5032191;28;20029;-46
2023/06/26 07:14:54;;;;;;;4.70;2.72;;;;;;;;;;5032169;28;20033;-46
2023/06/26 07:17:21;;;;;;;4.15;2.47;;;;;;;;;;5032051;28;20109;-46
2023/06/26 07:19:48;;;;;;;4.68;2.53;;;;;;;;;;5030786;28;20029;-47
2023/06/26 07:22:15;;;;;;;3.50;2.22;;;;;;;;;;5031933;28;20030;-46
2023/06/26 07:24:42;;;;;;;5.38;2.20;;;;;;;;;;5032048;28;20057;-46
2023/06/26 07:27:09;;;;;;;5.25;2.53;;;;;;;;;;5031976;28;20032;-46
2023/06/26 07:29:36;;;;;;;4.15;1.98;;;;;;;;;;5031945;28;20025;-46
2023/06/26 07:32:03;;;;;;;3.75;2.08;;;;;;;;;;5031106;28;20557;-46
2023/06/26 07:34:30;;;;;;;4.10;1.95;;;;;;;;;;5031869;28;20104;-45
2023/06/26 07:36:57;;;;;;;3.78;2.25;;;;;;;;;;5031690;28;20064;-46
2023/06/26 07:39:24;;;;;;;4.47;2.38;;;;;;;;;;5031700;28;20391;-46
2023/06/26 07:41:51;;;;;;;4.18;2.10;;;;;;;;;;5031453;28;20035;-45
2023/06/26 07:44:18;;;;;;;3.40;1.90;;;;;;;;;;5031691;28;20879;-46
2023/06/26 07:46:45;;;;;;;4.88;2.10;;;;;;;;;;5031528;28;20064;-46
2023/06/26 07:49:13;;;;;;;3.45;2.00;;;;;;;;;;5031739;28;20025;-46
2023/06/26 07:51:40;;;;;;;3.42;1.98;;;;;;;;;;5031600;28;20503;-46
2023/06/26 07:54:07;;;;;;;3.28;1.80;;;;;;;;;;5030186;28;20116;-47
2023/06/26 07:56:54;;;;;;;3.95;2.38;;;;;;;;;;5031582;28;20025;-45
2023/06/26 07:59:24;;;;;;;4.18;1.90;;;;;;;;;;5031416;28;20538;-47
2023/06/26 08:01:52;;;;;;;2.83;1.73;;;;;;;;;;5031428;28;20038;-46
2023/06/26 08:04:22;;;;;;;3.58;2.03;;;;;;;;;;5031497;28;20891;-46
2023/06/26 08:06:50;;;;;;;3.20;1.85;;;;;;;;;;5031473;28;20043;-46
2023/06/26 08:09:17;;;;;;;3.90;2.10;;;;;;;;;;5031485;28;20534;-46
2023/06/26 08:11:44;;;;;;;3.53;1.80;;;;;;;;;;5031379;28;20029;-46
2023/06/26 08:14:15;;;;;;;2.25;1.60;;;;;;;;;;5031451;28;20032;-46
2023/06/26 08:16:43;;;;;;;2.95;1.70;;;;;;;;;;5031353;28;20025;-46
2023/06/26 08:19:11;;;;;;;3.03;1.63;;;;;;;;;;5031302;28;20088;-46
2023/06/26 08:21:38;;;;;;;4.28;1.73;;;;;;;;;;5031259;28;20060;-46
2023/06/26 08:24:05;;;;;;;4.93;1.90;;;;;;;;;;5031370;28;20113;-46
2023/06/26 08:26:32;;;;;;;2.65;1.60;;;;;;;;;;5031293;28;20072;-45
2023/06/26 08:28:59;;;;;;;2.78;1.70;;;;;;;;;;5031251;28;20470;-46
2023/06/26 08:31:26;;;;;;;2.08;1.50;;;;;;;;;;5031106;28;20060;-46
2023/06/26 08:33:53;;;;;;;3.42;1.55;;;;;;;;;;5031323;28;20480;-46
2023/06/26 08:36:20;;;;;;;2.60;1.45;;;;;;;;;;5031001;28;20037;-46
2023/06/26 08:38:47;;;;;;;3.47;1.75;;;;;;;;;;5031250;28;20083;-46
2023/06/26 08:41:14;;;;;;;2.33;1.60;;;;;;;;;;5031177;28;20033;-46
2023/06/26 08:43:41;;;;;;;2.10;1.40;;;;;;;;;;5033111;28;20029;-47
2023/06/26 08:46:08;;;;;;;3.35;1.33;;;;;;;;;;5034772;28;20488;-46
2023/06/26 08:48:39;;;;;;;2.45;1.30;;;;;;;;;;5034925;28;20091;-46
2023/06/26 08:51:10;;;;;;;4.80;1.55;;;;;;;;;;5034896;28;20021;-46
2023/06/26 08:53:36;;;;;;;2.25;1.30;;;;;;;;;;5034724;28;20028;-46
2023/06/26 08:56:04;;;;;;;3.50;1.60;;;;;;;;;;5034658;28;20096;-48
2023/06/26 08:58:31;;;;;;;2.97;1.40;;;;;;;;;;5034782;28;20022;-46
2023/06/26 09:00:58;;;;;;;2.05;1.40;;;;;;;;;;5034656;28;20017;-46
2023/06/26 09:03:25;;;;;;;3.28;1.50;;;;;;;;;;5034524;28;20059;-48
2023/06/26 09:05:52;;;;;;;2.63;1.48;;;;;;;;;;5034555;28;20033;-45
2023/06/26 09:08:20;;;;;;;2.47;1.20;;;;;;;;;;5034483;28;20052;-46
2023/06/26 09:10:46;;;;;;;1.55;1.20;;;;;;;;;;5034551;28;20029;-46
2023/06/26 09:13:14;;;;;;;2.58;1.30;;;;;;;;;;5034368;28;20060;-46
2023/06/26 09:15:44;;;;;;;2.67;1.30;;;;;;;;;;5034362;28;20037;-46
2023/06/26 09:18:11;;;;;;;1.45;1.10;;;;;;;;;;5033038;28;20407;-46
2023/06/26 09:20:38;;;;;;;2.50;1.50;;;;;;;;;;5034344;28;20052;-46
2023/06/26 09:23:05;;;;;;;2.63;1.25;;;;;;;;;;5034138;28;20021;-45
2023/06/26 09:25:32;;;;;;;2.45;1.25;;;;;;;;;;5034237;28;20025;-46
2023/06/26 09:28:00;;;;;;;2.28;1.40;;;;;;;;;;5034174;28;20022;-46
2023/06/26 09:30:27;;;;;;;2.05;1.10;;;;;;;;;;5034168;28;20033;-46
2023/06/26 09:32:54;;;;;;;1.80;1.13;;;;;;;;;;5033939;28;20048;-46
2023/06/26 09:35:21;;;;;;;1.80;1.23;;;;;;;;;;5033867;28;20041;-47
2023/06/26 09:37:48;;;;;;;3.83;1.30;;;;;;;;;;5034007;28;20037;-46
2023/06/26 09:40:16;;;;;;;2.13;0.93;;;;;;;;;;5033567;28;20033;-46
2023/06/26 09:42:43;;;;;;;2.60;1.50;;;;;;;;;;5033530;28;20048;-46
2023/06/26 09:45:19;;;;;;;4.60;1.60;;;;;;;;;;5033640;28;20108;-46
2023/06/26 09:47:46;;;;;;;3.58;1.25;;;;;;;;;;5033490;28;20040;-46
2023/06/26 09:50:26;;;;;;;2.45;1.30;;;;;;;;;;5033785;28;20044;-46
2023/06/26 09:52:53;;;;;;;7.13;1.50;;;;;;;;;;5033514;28;20041;-47
2023/06/26 09:55:23;;;;;;;3.70;1.10;;;;;;;;;;5032770;28;20034;-46
2023/06/26 09:57:51;;;;;;;2.72;1.30;;;;;;;;;;5033566;28;20029;-48
2023/06/26 10:00:19;;;;;;;6.20;1.50;;;;;;;;;;5033514;28;20434;-46
2023/06/26 10:02:45;;;;;;;4.93;1.30;;;;;;;;;;5033320;28;20044;-46
2023/06/26 10:05:13;;;;;;;3.42;1.20;;;;;;;;;;5033524;28;20037;-47
2023/06/26 10:07:40;;;;;;;5.80;1.30;;;;;;;;;;5033464;28;20060;-47
2023/06/26 10:10:09;;;;;;;2.33;1.05;;;;;;;;;;5033373;28;20029;-46
2023/06/26 10:12:36;;;;;;;2.83;1.10;;;;;;;;;;5033309;28;20045;-47
2023/06/26 10:15:04;;;;;;;4.10;1.13;;;;;;;;;;5033369;28;20503;-46
2023/06/26 10:17:33;;;;;;;3.60;1.30;;;;;;;;;;5033091;28;20037;-46
2023/06/26 10:20:03;;;;;;;4.25;1.10;;;;;;;;;;5033108;28;20113;-46
2023/06/26 10:22:31;;;;;;;2.88;1.00;;;;;;;;;;5032997;28;20586;-46
2023/06/26 10:25:00;;;;;;;2.28;1.00;;;;;;;;;;5033064;28;20044;-46
2023/06/26 10:27:30;;;;;;;2.85;1.10;;;;;;;;;;5033115;28;20109;-46
2023/06/26 10:30:00;;;;;;;3.15;1.20;;;;;;;;;;5032831;28;20116;-46
2023/06/26 10:32:27;;;;;;;4.20;1.20;;;;;;;;;;5014963;28;20036;-46
2023/06/26 10:34:56;;;;;;;2.63;0.90;;;;;;;;;;5032818;28;20034;-46
2023/06/26 10:37:42;;;;;;;4.43;1.10;;;;;;;;;;5032833;28;20026;-46
2023/06/26 10:40:10;;;;;;;3.67;1.05;;;;;;;;;;5032690;28;20088;-46
2023/06/26 10:42:38;;;;;;;3.53;1.27;;;;;;;;;;5014148;28;20171;-46
2023/06/26 10:45:12;;;;;;;3.42;1.25;;;;;;;;;;5031919;28;20368;-46
2023/06/26 10:47:41;;;;;;;2.70;0.90;;;;;;;;;;5029466;28;20052;-45
2023/06/26 10:50:18;;;;;;;3.17;1.00;;;;;;;;;;5032033;28;20029;-46
2023/06/26 10:52:46;;;;;;;1.90;0.93;;;;;;;;;;5030418;28;20107;-46
2023/06/26 10:55:15;;;;;;;2.90;0.77;;;;;;;;;;5031757;28;20033;-45
2023/06/26 10:57:45;;;;;;;1.88;0.90;;;;;;;;;;5031802;28;20022;-46
2023/06/26 11:00:16;;;;;;;6.00;1.02;;;;;;;;;;5030944;28;20083;-45
2023/06/26 11:03:23;;;;;;;4.57;1.10;;;;;;;;;;5029129;28;20464;-46
2023/06/26 11:06:10;;;;;;;4.32;0.85;;;;;;;;;;5031027;28;20045;-46
2023/06/26 11:09:00;;;;;;;4.60;1.20;;;;;;;;;;5021926;28;20034;-48
2023/06/26 11:11:45;;;;;;;5.03;1.00;;;;;;;;;;5026426;28;20052;-45
2023/06/26 11:14:12;;;;;;;2.95;1.17;;;;;;;;;;5026837;28;20026;-49
2023/06/26 11:16:39;;;;;;;5.93;1.30;;;;;;;;;;5031017;28;20029;-49
2023/06/26 11:19:07;;;;;;;5.50;1.23;;;;;;;;;;5030878;28;20160;-48
2023/06/26 11:21:34;;;;;;;4.95;1.13;;;;;;;;;;5028016;28;20043;-47
2023/06/26 11:24:02;;;;;;;6.28;1.38;;;;;;;;;;5030706;28;20104;-48
2023/06/26 11:26:29;;;;;;;4.55;1.10;;;;;;;;;;5030733;28;20057;-49
2023/06/26 11:28:56;;;;;;;2.70;1.00;;;;;;;;;;5013050;28;20483;-51
2023/06/26 11:31:26;;;;;;;4.45;1.27;;;;;;;;;;5029081;28;20075;-49
2023/06/26 11:33:56;;;;;;;1.92;1.00;;;;;;;;;;5027804;28;20419;-49
2023/06/26 11:36:26;;;;;;;4.10;0.98;;;;;;;;;;5030748;28;20108;-47
2023/06/26 11:38:57;;;;;;;3.03;1.00;;;;;;;;;;5028523;28;20021;-54
2023/06/26 11:41:28;;;;;;;5.45;1.10;;;;;;;;;;5029309;28;20041;-46
2023/06/26 11:43:55;;;;;;;4.65;1.08;;;;;;;;;;5028116;28;20029;-46
2023/06/26 11:46:23;;;;;;;6.25;1.10;;;;;;;;;;5030814;28;20045;-47
2023/06/26 11:48:50;;;;;;;4.00;1.13;;;;;;;;;;5030268;28;20088;-46
2023/06/26 11:51:17;;;;;;;4.18;1.20;;;;;;;;;;5027033;28;20034;-49
2023/06/26 11:53:44;;;;;;;3.28;0.82;;;;;;;;;;5029578;28;20128;-46
2023/06/26 11:56:12;;;;;;;6.10;0.98;;;;;;;;;;5027749;28;20036;-47
2023/06/26 11:59:03;;;;;;;1.60;0.85;;;;;;;;;;5030820;28;20029;-47
2023/06/26 12:01:36;;;;;;;2.95;0.88;;;;;;;;;;5027340;28;20052;-46
2023/06/26 12:04:04;;;;;;;9.55;1.20;;;;;;;;;;5027977;28;20108;-48
2023/06/26 12:06:32;;;;;;;7.97;1.02;;;;;;;;;;5027641;28;20026;-47
2023/06/26 12:09:00;;;;;;;4.15;1.20;;;;;;;;;;5029815;28;20029;-45
2023/06/26 12:11:31;;;;;;;2.95;0.90;;;;;;;;;;5029869;28;20038;-46
2023/06/26 12:13:58;;;;;;;2.72;0.90;;;;;;;;;;5028502;28;20030;-47
2023/06/26 12:16:25;;;;;;;6.65;1.35;;;;;;;;;;5030375;28;20079;-48
2023/06/26 12:18:52;;;;;;;4.57;1.15;;;;;;;;;;5032963;28;20045;-47
2023/06/26 12:21:37;;;;;;;6.57;1.08;;;;;;;;;;5034622;28;20385;-48
2023/06/26 12:24:05;;;;;;;7.00;1.20;;;;;;;;;;5033927;28;21622;-47
2023/06/26 12:26:38;;;;;;;7.85;1.08;;;;;;;;;;5032142;28;20028;-46
2023/06/26 12:29:11;;;;;;;9.18;1.23;;;;;;;;;;5033703;28;20029;-46
2023/06/26 12:31:41;;;;;;;17.35;1.50;;;;;;;;;;5034554;28;20108;-46
2023/06/26 12:34:17;;;;;;;3.00;1.10;;;;;;;;;;5034680;28;20037;-46
2023/06/26 12:36:46;;;;;;;5.70;1.15;;;;;;;;;;5033894;28;20426;-46
2023/06/26 12:39:13;;;;;;;4.70;1.40;;;;;;;;;;5029156;28;20037;-47
2023/06/26 12:41:47;;;;;;;4.97;1.17;;;;;;;;;;5034576;28;20025;-47
2023/06/26 12:44:26;;;;;;;4.40;1.38;;;;;;;;;;5034977;28;20045;-46
2023/06/26 12:47:02;;;;;;;7.63;1.45;;;;;;;;;;5034887;28;20125;-46
2023/06/26 12:49:35;;;;;;;5.00;1.20;;;;;;;;;;5034933;28;20079;-47
2023/06/26 12:52:04;;;;;;;3.40;1.10;;;;;;;;;;5017026;28;20044;-46
2023/06/26 12:54:31;;;;;;;7.30;1.23;;;;;;;;;;5034805;28;20056;-46
2023/06/26 12:56:58;;;;;;;4.68;1.27;;;;;;;;;;5034814;28;20032;-46
2023/06/26 12:59:25;;;;;;;4.93;1.10;;;;;;;;;;5034808;28;20052;-46
2023/06/26 13:01:52;;;;;;;6.80;1.30;;;;;;;;;;5034576;28;20033;-47
2023/06/26 13:04:19;;;;;;;5.63;1.40;;;;;;;;;;5034624;28;20037;-46
2023/06/26 13:06:46;;;;;;;8.35;1.40;;;;;;;;;;5016863;28;20160;-47
2023/06/26 13:09:13;;;;;;;5.82;1.30;;;;;;;;;;5034611;28;20021;-46
2023/06/26 13:11:40;;;;;;;2.22;1.08;;;;;;;;;;5016661;28;20029;-47
2023/06/26 13:14:07;;;;;;;2.95;1.00;;;;;;;;;;5034461;28;20121;-47
2023/06/26 13:16:34;;;;;;;6.22;1.10;;;;;;;;;;5034497;28;20022;-48
2023/06/26 13:19:02;;;;;;;4.88;1.45;;;;;;;;;;5034377;28;20026;-47
2023/06/26 13:21:29;;;;;;;3.47;0.88;;;;;;;;;;5034206;28;20029;-47
2023/06/26 13:23:57;;;;;;;2.30;1.08;;;;;;;;;;5034363;28;20549;-46
2023/06/26 13:26:25;;;;;;;4.78;1.17;;;;;;;;;;5034258;28;20575;-48
2023/06/26 13:28:52;;;;;;;3.03;1.02;;;;;;;;;;5033701;28;20075;-48
2023/06/26 13:31:19;;;;;;;3.08;1.08;;;;;;;;;;5015685;28;20065;-47
2023/06/26 13:33:50;;;;;;;3.20;1.00;;;;;;;;;;5034130;28;20028;-47
2023/06/26 13:36:17;;;;;;;1.40;0.70;;;;;;;;;;5034079;28;20037;-47
2023/06/26 13:38:44;;;;;;;3.72;1.05;;;;;;;;;;5016239;28;20381;-47
2023/06/26 13:41:11;;;;;;;4.88;1.10;;;;;;;;;;5033861;28;20029;-47
2023/06/26 13:43:38;;;;;;;4.65;1.00;;;;;;;;;;5033977;28;20041;-46
2023/06/26 13:46:05;;;;;;;2.65;0.95;;;;;;;;;;5033625;28;20483;-46
2023/06/26 13:48:32;;;;;;;3.60;1.10;;;;;;;;;;5033882;28;20029;-47
2023/06/26 13:51:00;;;;;;;3.50;1.00;;;;;;;;;;5033687;28;20033;-46
2023/06/26 13:53:27;;;;;;;3.40;1.10;;;;;;;;;;5033664;28;20037;-47
2023/06/26 13:55:54;;;;;;;3.75;1.02;;;;;;;;;;5033745;28;20060;-47
2023/06/26 13:58:22;;;;;;;3.42;0.85;;;;;;;;;;5033686;28;20072;-46
2023/06/26 14:00:49;;;;;;;4.85;1.30;;;;;;;;;;5033484;28;20029;-46
2023/06/26 14:03:17;;;;;;;3.22;1.08;;;;;;;;;;5033376;28;20474;-46
2023/06/26 14:05:44;;;;;;;4.00;1.13;;;;;;;;;;5033426;28;20039;-47
2023/06/26 14:08:11;;;;;;;2.90;0.85;;;;;;;;;;5033550;28;20056;-46
2023/06/26 14:10:38;;;;;;;1.73;0.63;;;;;;;;;;5033395;28;20040;-46
2023/06/26 14:13:05;;;;;;;3.80;0.95;;;;;;;;;;5033309;28;20025;-47
2023/06/26 14:15:34;;;;;;;2.65;0.93;;;;;;;;;;5015444;28;20036;-47
2023/06/26 14:18:03;;;;;;;3.05;1.00;;;;;;;;;;5033312;28;20057;-47
2023/06/26 14:20:32;;;;;;;2.50;0.75;;;;;;;;;;5033289;28;20033;-46
2023/06/26 14:22:59;;;;;;;2.65;0.75;;;;;;;;;;5033014;28;20029;-47
2023/06/26 14:25:27;;;;;;;2.67;0.80;;;;;;;;;;5033169;28;20036;-47
2023/06/26 14:27:58;;;;;;;2.20;0.82;;;;;;;;;;5033185;28;20044;-48
2023/06/26 14:30:25;;;;;;;2.95;1.20;;;;;;;;;;5033118;28;20021;-46
2023/06/26 14:32:52;;;;;;;2.95;0.82;;;;;;;;;;5033024;28;20108;-46
2023/06/26 14:35:19;;;;;;;3.83;0.90;;;;;;;;;;5033044;28;20474;-49
2023/06/26 14:37:46;;;;;;;3.28;0.90;;;;;;;;;;5032879;28;20496;-46
2023/06/26 14:40:14;;;;;;;2.20;0.90;;;;;;;;;;5032731;28;20025;-47
2023/06/26 14:42:42;;;;;;;3.60;1.23;;;;;;;;;;5032533;28;20033;-47